createdAt,value
2023-02-04T00:03:52.359Z,6.80
2023-02-04T00:07:55.443Z,6.80
2023-02-04T00:11:59.834Z,6.80
2023-02-04T00:16:03.315Z,6.90
2023-02-04T00:20:06.652Z,6.90
2023-02-04T00:24:10.076Z,6.90
2023-02-04T00:28:14.253Z,6.90
2023-02-04T00:32:17.148Z,6.90
2023-02-04T00:36:20.291Z,6.90
2023-02-04T00:40:23.048Z,6.90
2023-02-04T00:44:27.333Z,6.90
2023-02-04T00:48:30.201Z,6.80
2023-02-04T00:52:33.166Z,6.80
2023-02-04T00:56:35.978Z,6.70
2023-02-04T01:00:40.219Z,6.70
2023-02-04T01:04:43.106Z,6.60
2023-02-04T01:08:45.926Z,6.60
2023-02-04T01:12:48.736Z,6.60
2023-02-04T01:16:53.512Z,6.50
2023-02-04T01:20:56.297Z,6.50
2023-02-04T01:24:59.205Z,6.50
2023-02-04T01:29:01.986Z,6.40
2023-02-04T01:33:06.128Z,6.30
2023-02-04T01:37:08.963Z,6.30
2023-02-04T01:41:11.723Z,6.30
2023-02-04T01:45:14.552Z,6.20
2023-02-04T01:53:22.870Z,6.20
2023-02-04T01:57:25.695Z,6.10
2023-02-04T02:01:35.743Z,6.10
2023-02-04T02:05:40.223Z,6.10
2023-02-04T02:09:44.396Z,6.10
2023-02-04T02:13:47.216Z,6.10
2023-02-04T02:17:50.447Z,6.00
2023-02-04T02:21:56.458Z,6.00
2023-02-04T02:26:00.577Z,6.00
2023-02-04T02:30:03.389Z,5.90
2023-02-04T02:34:06.373Z,5.90
2023-02-04T02:38:09.172Z,5.90
2023-02-04T02:42:14.531Z,5.80
2023-02-04T02:46:17.344Z,5.80
2023-02-04T02:50:21.550Z,5.80
2023-02-04T02:54:25.529Z,5.70
2023-02-04T02:58:32.343Z,5.70
2023-02-04T03:02:35.188Z,5.60
2023-02-04T03:06:38.170Z,5.60
2023-02-04T03:10:40.984Z,5.50
2023-02-04T03:14:45.180Z,5.50
2023-02-04T03:18:48.176Z,5.50
2023-02-04T03:22:51.046Z,5.50
2023-02-04T03:26:53.812Z,5.50
2023-02-04T03:30:58.046Z,5.50
2023-02-04T03:35:00.865Z,5.50
2023-02-04T03:39:03.735Z,5.50
2023-02-04T03:43:06.528Z,5.50
2023-02-04T03:47:10.685Z,5.40
2023-02-04T03:55:16.791Z,5.30
2023-02-04T03:59:19.614Z,5.30
2023-02-04T04:03:23.795Z,5.20
2023-02-04T04:07:26.630Z,5.20
2023-02-04T04:11:29.408Z,5.10
2023-02-04T04:15:32.239Z,5.10
2023-02-04T04:19:36.393Z,5.00
2023-02-04T04:23:39.228Z,5.00
2023-02-04T04:27:42.082Z,5.00
2023-02-04T04:31:45.001Z,4.90
2023-02-04T04:35:49.192Z,4.90
2023-02-04T04:39:51.990Z,4.80
2023-02-04T04:43:54.799Z,4.70
2023-02-04T04:47:57.647Z,4.70
2023-02-04T04:52:01.786Z,4.60
2023-02-04T04:56:04.627Z,4.50
2023-02-04T05:00:08.152Z,4.40
2023-02-04T05:04:10.960Z,4.40
2023-02-04T05:08:16.970Z,4.30
2023-02-04T05:12:19.737Z,4.20
2023-02-04T05:16:22.608Z,4.20
2023-02-04T05:20:25.502Z,4.10
2023-02-04T05:24:29.676Z,4.10
2023-02-04T05:28:32.463Z,4.00
2023-02-04T05:32:35.222Z,4.00
2023-02-04T05:36:38.011Z,4.00
2023-02-04T05:40:42.227Z,3.90
2023-02-04T05:44:45.043Z,3.90
2023-02-04T05:48:47.862Z,3.80
2023-02-04T05:52:51.179Z,3.80
2023-02-04T05:56:55.314Z,3.70
2023-02-04T06:00:58.188Z,3.60
2023-02-04T06:05:01.089Z,3.60
2023-02-04T06:09:03.926Z,3.60
2023-02-04T06:13:08.097Z,3.50
2023-02-04T06:17:10.848Z,3.50
2023-02-04T06:21:13.678Z,3.50
2023-02-04T06:25:16.595Z,3.50
2023-02-04T06:29:20.719Z,3.40
2023-02-04T06:33:24.188Z,3.40
2023-02-04T06:37:26.973Z,3.40
2023-02-04T06:41:29.814Z,3.40
2023-02-04T06:45:33.968Z,3.40
2023-02-04T06:49:36.771Z,3.40
2023-02-04T06:53:40.324Z,3.40
2023-02-04T06:57:43.122Z,3.30
2023-02-04T07:01:47.303Z,3.30
2023-02-04T07:05:52.489Z,3.30
2023-02-04T07:09:55.402Z,3.40
2023-02-04T07:14:00.102Z,3.30
2023-02-04T07:18:05.259Z,3.30
2023-02-04T07:22:08.112Z,3.30
2023-02-04T07:26:11.020Z,3.30
2023-02-04T07:30:14.415Z,3.30
2023-02-04T07:34:18.813Z,3.20
2023-02-04T07:38:21.600Z,3.20
2023-02-04T07:42:24.390Z,3.20
2023-02-04T07:46:27.288Z,3.10
2023-02-04T07:50:31.939Z,3.10
2023-02-04T07:54:34.951Z,3.10
2023-02-04T07:58:37.741Z,3.10
2023-02-04T08:02:40.561Z,3.10
2023-02-04T08:06:44.789Z,3.10
2023-02-04T08:10:47.635Z,3.10
2023-02-04T08:14:50.446Z,3.10
2023-02-04T08:18:53.276Z,3.20
2023-02-04T08:22:57.556Z,3.20
2023-02-04T08:27:00.365Z,3.30
2023-02-04T08:31:03.737Z,3.40
2023-02-04T08:35:06.958Z,3.50
2023-02-04T08:39:12.400Z,3.50
2023-02-04T08:43:15.209Z,3.60
2023-02-04T08:47:18.041Z,3.70
2023-02-04T08:51:21.104Z,3.70
2023-02-04T08:55:25.262Z,3.80
2023-02-04T08:59:28.444Z,4.10
2023-02-04T09:03:31.231Z,4.80
2023-02-04T09:07:34.022Z,5.80
2023-02-04T09:11:38.370Z,7.00
2023-02-04T09:15:41.172Z,8.30
2023-02-04T09:19:44.272Z,9.40
2023-02-04T09:23:48.726Z,10.80
2023-02-04T09:27:52.931Z,12.20
2023-02-04T09:31:55.792Z,12.20
2023-02-04T09:35:58.621Z,12.80
2023-02-04T09:40:01.417Z,12.90
2023-02-04T09:44:06.488Z,12.80
2023-02-04T09:48:12.754Z,12.40
2023-02-04T09:52:16.916Z,12.00
2023-02-04T09:56:19.743Z,11.50
2023-02-04T10:00:25.641Z,11.20
2023-02-04T10:04:28.826Z,10.80
2023-02-04T10:08:34.488Z,10.40
2023-02-04T10:12:37.375Z,10.00
2023-02-04T10:16:43.495Z,9.80
2023-02-04T10:20:46.493Z,9.80
2023-02-04T10:24:49.328Z,10.00
2023-02-04T10:28:52.105Z,10.60
2023-02-04T10:32:56.399Z,11.30
2023-02-04T10:41:02.717Z,12.90
2023-02-04T10:45:05.848Z,13.10
2023-02-04T10:53:34.670Z,14.70
2023-02-04T11:05:43.748Z,16.50
2023-02-04T11:09:48.816Z,16.70
2023-02-04T11:14:03.237Z,17.10
2023-02-04T11:18:07.062Z,17.60
2023-02-04T11:22:22.401Z,18.20
2023-02-04T11:26:34.655Z,18.70
2023-02-04T11:30:37.598Z,19.20
2023-02-04T11:34:48.489Z,19.10
2023-02-04T11:38:51.345Z,19.40
2023-02-04T11:42:58.969Z,19.30
2023-02-04T11:47:03.258Z,18.90
2023-02-04T11:51:12.608Z,18.80
2023-02-04T11:55:15.422Z,18.80
2023-02-04T11:59:21.455Z,19.10
2023-02-04T12:03:26.026Z,19.30
2023-02-04T12:07:29.761Z,19.40
2023-02-04T12:11:32.801Z,19.10
2023-02-04T12:15:37.069Z,18.90
2023-02-04T12:19:39.848Z,18.30
2023-02-04T12:23:43.479Z,17.60
2023-02-04T12:27:46.446Z,17.10
2023-02-04T12:31:50.726Z,17.00
2023-02-04T12:35:54.026Z,16.90
2023-02-04T12:39:56.805Z,16.70
2023-02-04T12:44:01.346Z,16.30
2023-02-04T12:48:05.705Z,16.40
2023-02-04T12:52:08.593Z,16.80
2023-02-04T12:56:11.434Z,17.50
2023-02-04T13:00:15.361Z,18.00
2023-02-04T13:04:19.581Z,18.10
2023-02-04T13:08:22.473Z,17.90
2023-02-04T13:12:25.255Z,17.40
2023-02-04T13:16:28.097Z,16.90
2023-02-04T13:20:32.284Z,16.20
2023-02-04T13:24:35.098Z,15.60
2023-02-04T13:28:37.904Z,15.00
2023-02-04T13:32:41.072Z,14.50
2023-02-04T13:36:45.394Z,14.10
2023-02-04T13:40:48.217Z,13.70
2023-02-04T13:44:51.006Z,13.30
2023-02-04T13:48:53.844Z,13.00
2023-02-04T13:52:58.219Z,12.70
2023-02-04T13:57:01.028Z,12.40
2023-02-04T14:01:03.923Z,12.20
2023-02-04T14:05:07.044Z,11.90
2023-02-04T14:09:11.789Z,11.70
2023-02-04T14:13:14.992Z,11.60
2023-02-04T14:17:17.767Z,11.30
2023-02-04T14:21:20.566Z,11.10
2023-02-04T14:25:24.814Z,11.00
2023-02-04T14:29:27.626Z,10.80
2023-02-04T14:33:30.515Z,10.60
2023-02-04T14:37:33.311Z,10.50
2023-02-04T14:41:37.446Z,10.30
2023-02-04T14:45:40.983Z,10.20
2023-02-04T14:49:43.809Z,10.00
2023-02-04T14:53:48.769Z,9.90
2023-02-04T14:57:53.391Z,9.80
2023-02-04T15:01:56.221Z,9.70
2023-02-04T15:05:58.984Z,9.60
2023-02-04T15:10:01.833Z,9.60
2023-02-04T15:14:06.055Z,9.50
2023-02-04T15:18:08.869Z,9.40
2023-02-04T15:22:12.657Z,9.30
2023-02-04T15:26:15.555Z,9.20
2023-02-04T15:30:20.203Z,9.10
2023-02-04T15:34:23.265Z,9.00
2023-02-04T15:38:26.147Z,8.90
2023-02-04T15:42:29.445Z,8.80
2023-02-04T15:46:34.908Z,8.70
2023-02-04T15:50:38.422Z,8.60
2023-02-04T15:54:41.297Z,8.50
2023-02-04T15:58:44.125Z,8.50
2023-02-04T16:02:48.350Z,8.40
2023-02-04T16:06:58.469Z,8.20
2023-02-04T16:11:01.643Z,8.20
2023-02-04T16:15:04.666Z,8.10
2023-02-04T16:19:09.459Z,8.00
2023-02-04T16:23:12.263Z,7.90
2023-02-04T16:27:15.128Z,7.80
2023-02-04T16:31:17.977Z,7.70
2023-02-04T16:35:22.177Z,7.50
2023-02-04T16:39:25.000Z,7.40
2023-02-04T16:43:27.806Z,7.30
2023-02-04T16:47:30.626Z,7.20
2023-02-04T16:51:34.767Z,7.10
2023-02-04T16:55:37.597Z,7.10
2023-02-04T16:59:40.398Z,7.00
2023-02-04T17:03:43.186Z,6.90
2023-02-04T17:07:47.336Z,6.80
2023-02-04T17:15:59.231Z,6.60
2023-02-04T17:20:02.061Z,6.50
2023-02-04T17:24:06.594Z,6.40
2023-02-04T17:28:09.565Z,6.30
2023-02-04T17:32:12.934Z,6.20
2023-02-04T17:36:15.765Z,6.10
2023-02-04T17:40:20.155Z,6.00
2023-02-04T17:44:26.729Z,6.00
2023-02-04T17:48:30.787Z,5.80
2023-02-04T17:52:34.491Z,5.80
2023-02-04T17:56:39.695Z,5.70
2023-02-04T18:00:43.164Z,5.60
2023-02-04T18:04:46.199Z,5.60
2023-02-04T18:08:49.410Z,5.50
2023-02-04T18:12:53.753Z,5.50
2023-02-04T18:16:57.961Z,5.40
2023-02-04T18:21:02.192Z,5.40
2023-02-04T18:25:07.885Z,5.40
2023-02-04T18:29:20.243Z,5.40
2023-02-04T18:33:24.019Z,5.30
2023-02-04T18:37:31.452Z,5.40
2023-02-04T18:41:34.459Z,5.40
2023-02-04T18:45:38.966Z,5.40
2023-02-04T18:49:43.921Z,5.30
2023-02-04T18:53:46.989Z,5.30
2023-02-04T18:57:49.962Z,5.30
2023-02-04T19:01:54.917Z,5.30
2023-02-04T19:05:59.338Z,5.30
2023-02-04T19:10:04.266Z,5.30
2023-02-04T19:14:14.586Z,5.30
2023-02-04T19:18:22.870Z,5.30
2023-02-04T19:22:37.089Z,5.30
2023-02-04T19:26:41.174Z,5.30
2023-02-04T19:30:47.974Z,5.30
2023-02-04T19:34:52.693Z,5.30
2023-02-04T19:38:57.762Z,5.20
2023-02-04T19:43:04.976Z,5.30
2023-02-04T19:47:21.097Z,5.20
2023-02-04T19:51:28.529Z,5.20
2023-02-04T19:55:36.475Z,5.20
2023-02-04T19:59:39.502Z,5.10
2023-02-04T20:03:43.125Z,5.10
2023-02-04T20:07:47.366Z,5.10
2023-02-04T20:11:54.029Z,5.00
2023-02-04T20:15:57.703Z,5.00
2023-02-04T20:20:02.704Z,4.90
2023-02-04T20:24:10.093Z,4.90
2023-02-04T20:28:30.236Z,4.80
2023-02-04T20:32:35.871Z,4.70
2023-02-04T20:36:42.599Z,4.70
2023-02-04T20:40:46.903Z,4.60
2023-02-04T20:44:49.942Z,4.50
2023-02-04T20:48:52.759Z,4.50
2023-02-04T20:53:14.457Z,4.40
2023-02-04T20:57:21.427Z,4.30
2023-02-04T21:01:27.929Z,4.30
2023-02-04T21:05:31.036Z,4.20
2023-02-04T21:09:37.503Z,4.10
2023-02-04T21:13:41.661Z,4.10
2023-02-04T21:17:44.557Z,4.00
2023-02-04T21:21:47.568Z,4.00
2023-02-04T21:25:50.368Z,3.90
2023-02-04T21:29:54.578Z,3.80
2023-02-04T21:33:58.074Z,3.80
2023-02-04T21:38:04.260Z,3.70
2023-02-04T21:42:13.980Z,3.70
2023-02-04T21:46:18.711Z,3.60
2023-02-04T21:50:22.540Z,3.60
2023-02-04T21:54:25.336Z,3.50
2023-02-04T21:58:28.249Z,3.40
2023-02-04T22:02:32.498Z,3.40
2023-02-04T22:06:35.357Z,3.30
2023-02-04T22:10:38.361Z,3.20
2023-02-04T22:14:41.171Z,3.20
2023-02-04T22:18:45.392Z,3.10
2023-02-04T22:22:48.670Z,3.00
2023-02-04T22:26:51.769Z,3.00
2023-02-04T22:30:54.589Z,2.90
2023-02-04T22:34:58.997Z,2.90
2023-02-04T22:39:01.833Z,2.80
2023-02-04T22:43:05.067Z,2.70
2023-02-04T22:47:07.873Z,2.60
2023-02-04T22:51:12.644Z,2.50
2023-02-04T22:55:16.296Z,2.50
2023-02-04T22:59:19.114Z,2.40
2023-02-04T23:03:21.885Z,2.40
2023-02-04T23:07:26.128Z,2.30
2023-02-04T23:11:29.926Z,2.30
2023-02-04T23:15:32.991Z,2.20
2023-02-04T23:19:35.976Z,2.10
2023-02-04T23:23:40.174Z,2.10
2023-02-04T23:27:45.526Z,2.00
2023-02-04T23:31:48.481Z,2.00
2023-02-04T23:35:51.479Z,1.90
2023-02-04T23:39:55.739Z,1.90
2023-02-04T23:43:58.584Z,1.90
2023-02-04T23:48:01.405Z,1.80
2023-02-04T23:52:04.362Z,1.80
2023-02-04T23:56:08.585Z,1.80
